Time;durP1;ratioP1;P1;durP2;ratioP2;P2;SDS_P1;SDS_P2;PMS_P1;PMS_P2;Temp;Humidity;BMP_temperature;BMP_pressure;BME280_temperature;BME280_humidity;BME280_pressure;Samples;Min_cycle;Max_cycle;Signal;HPM_P1;HPM_P2
2021/05/06 00:06:41;;;;;;;3.83;2.60;;;;;;;7.84;64.21;100756.81;4954050;28;20055;-52
2021/05/06 00:33:31;;;;;;;4.03;2.63;;;;;;;7.77;65.15;100712.78;4953582;28;20098;-54
2021/05/06 00:35:58;;;;;;;5.63;3.20;;;;;;;7.77;64.73;100713.63;4953518;29;20126;-56
2021/05/06 00:38:29;;;;;;;5.78;2.88;;;;;;;7.81;64.88;100714.72;4953392;28;20039;-55
2021/05/06 01:02:45;;;;;;;6.32;3.13;;;;;;;7.66;66.02;100685.53;4897671;29;20116;-52
2021/05/06 01:08:00;;;;;;;4.28;2.60;;;;;;;7.75;65.33;100685.13;4881366;29;20080;-53
2021/05/06 01:13:19;;;;;;;5.07;3.15;;;;;;;7.77;65.58;100694.63;4897310;29;20040;-52
2021/05/06 01:15:47;;;;;;;3.38;2.50;;;;;;;7.74;66.15;100684.28;4931682;29;20071;-53
2021/05/06 01:18:14;;;;;;;4.43;2.92;;;;;;;7.75;66.18;100677.78;4935045;29;20058;-54
2021/05/06 01:20:44;;;;;;;4.55;2.72;;;;;;;7.77;66.41;100672.09;4935022;29;20056;-52
2021/05/06 01:23:11;;;;;;;4.35;2.85;;;;;;;7.78;66.37;100671.03;4919393;29;20060;-52
2021/05/06 01:25:41;;;;;;;4.45;3.00;;;;;;;7.74;66.08;100672.59;4934438;29;20753;-53
2021/05/06 01:28:11;;;;;;;4.82;3.08;;;;;;;7.70;66.04;100669.59;4934957;29;20051;-52
2021/05/06 01:30:44;;;;;;;6.97;3.17;;;;;;;7.66;66.29;100666.56;4934759;29;20044;-53
2021/05/06 01:33:21;;;;;;;5.78;3.28;;;;;;;7.65;66.67;100673.06;4934882;29;20051;-51
2021/05/06 01:47:06;;;;;;;3.70;2.90;;;;;;;7.56;66.82;100676.47;4915687;29;20044;-53
2021/05/06 01:58:29;;;;;;;5.40;3.00;;;;;;;7.54;66.83;100668.56;4892559;29;20043;-56
2021/05/06 02:01:02;;;;;;;5.10;2.90;;;;;;;7.54;66.37;100673.19;4915843;29;20044;-54
2021/05/06 02:03:30;;;;;;;5.28;3.00;;;;;;;7.52;67.35;100678.03;4904970;29;20523;-54
2021/05/06 02:05:58;;;;;;;5.75;3.20;;;;;;;7.49;66.83;100668.50;4896512;29;20080;-52
2021/05/06 02:08:26;;;;;;;4.35;2.95;;;;;;;7.47;67.82;100667.94;4896158;29;20136;-53
2021/05/06 02:11:01;;;;;;;5.57;2.90;;;;;;;7.46;67.41;100669.03;4881948;29;20052;-53
2021/05/06 02:13:52;;;;;;;4.00;3.00;;;;;;;7.46;67.43;100672.53;4880594;29;20044;-54
2021/05/06 02:16:29;;;;;;;5.60;3.20;;;;;;;7.46;67.24;100669.03;4939454;29;20059;-54
2021/05/06 02:18:58;;;;;;;5.15;3.15;;;;;;;7.44;67.54;100666.56;4970318;28;20090;-54
2021/05/06 02:21:26;;;;;;;5.63;3.13;;;;;;;7.45;67.88;100662.75;4955289;28;20518;-52
2021/05/06 02:23:57;;;;;;;7.82;3.10;;;;;;;7.47;67.65;100662.50;4955232;28;20043;-52
2021/05/06 02:26:25;;;;;;;4.45;3.20;;;;;;;7.44;68.01;100666.56;4955372;28;20040;-53
2021/05/06 02:28:52;;;;;;;3.83;2.97;;;;;;;7.41;68.23;100656.22;4954014;29;20367;-51
2021/05/06 02:31:21;;;;;;;4.95;3.10;;;;;;;7.40;67.56;100659.16;4955249;28;20094;-53
2021/05/06 02:33:49;;;;;;;4.80;3.03;;;;;;;7.42;68.24;100662.44;4954968;28;20458;-51
2021/05/06 02:36:17;;;;;;;6.97;3.13;;;;;;;7.50;68.38;100647.63;4946317;29;20039;-50
2021/05/06 02:38:44;;;;;;;5.70;3.40;;;;;;;7.51;68.32;100649.28;4937288;29;20051;-50
2021/05/06 02:41:11;;;;;;;5.45;3.40;;;;;;;7.51;68.22;100650.09;4954888;28;20516;-54
2021/05/06 02:43:39;;;;;;;4.40;3.35;;;;;;;7.52;68.46;100651.72;4954994;28;20064;-52
2021/05/06 02:46:06;;;;;;;7.53;3.50;;;;;;;7.53;68.57;100652.53;4928617;29;20402;-53
2021/05/06 02:48:33;;;;;;;6.28;3.85;;;;;;;7.50;68.69;100643.03;4953456;29;20138;-55
2021/05/06 02:51:02;;;;;;;5.38;3.42;;;;;;;7.52;69.16;100648.22;4954536;29;20051;-52
2021/05/06 02:53:34;;;;;;;7.45;3.88;;;;;;;7.51;68.78;100644.69;4940444;28;20048;-52
2021/05/06 03:03:49;;;;;;;5.47;3.83;;;;;;;7.36;69.00;100641.75;4936022;29;20048;-52
2021/05/06 03:06:26;;;;;;;6.28;3.95;;;;;;;7.38;69.60;100635.00;4935663;29;20044;-53
2021/05/06 03:09:06;;;;;;;6.88;4.13;;;;;;;7.42;69.01;100629.94;4935513;29;20062;-53
2021/05/06 03:11:41;;;;;;;7.78;4.53;;;;;;;7.46;68.79;100625.66;4935448;29;20111;-55
2021/05/06 03:24:59;;;;;;;8.13;4.80;;;;;;;7.37;69.50;100627.97;4935548;29;20050;-54
2021/05/06 03:27:30;;;;;;;7.05;4.18;;;;;;;7.36;69.23;100628.22;4935031;29;20051;-56
2021/05/06 03:32:57;;;;;;;6.90;4.53;;;;;;;7.35;69.55;100640.13;4934702;29;20414;-49
2021/05/06 04:03:27;;;;;;;7.95;4.95;;;;;;;7.30;69.84;100637.34;4951328;29;20055;-53
2021/05/06 04:35:54;;;;;;;8.27;5.50;;;;;;;7.20;69.81;100629.91;4937894;29;20388;-52
2021/05/06 04:38:23;;;;;;;10.50;5.63;;;;;;;7.19;69.84;100631.81;4938478;29;20043;-52
2021/05/06 05:04:50;;;;;;;8.63;5.18;;;;;;;7.21;70.20;100645.09;4937543;29;20055;-51
2021/05/06 05:07:22;;;;;;;10.32;5.45;;;;;;;7.20;70.02;100646.97;4937475;29;20052;-55
2021/05/06 05:10:21;;;;;;;9.60;5.82;;;;;;;7.17;70.02;100644.78;4937386;29;20048;-53
2021/05/06 05:20:44;;;;;;;7.18;4.80;;;;;;;7.16;69.83;100643.13;4954211;29;20070;-53
2021/05/06 05:23:29;;;;;;;9.13;5.30;;;;;;;7.18;70.04;100640.19;4954418;29;20059;-52
2021/05/06 05:26:01;;;;;;;9.27;4.80;;;;;;;7.20;70.44;100644.28;4954056;29;20063;-52
2021/05/06 05:28:29;;;;;;;9.30;5.38;;;;;;;7.21;69.91;100637.78;4954308;29;20059;-53
2021/05/06 05:30:57;;;;;;;8.07;5.05;;;;;;;7.20;69.95;100633.44;4952891;28;20497;-55
2021/05/06 05:33:26;;;;;;;9.70;5.15;;;;;;;7.19;70.11;100633.66;4954003;29;20122;-53
2021/05/06 05:36:07;;;;;;;7.85;4.57;;;;;;;7.19;69.87;100637.22;4953190;29;20130;-54
2021/05/06 05:42:06;;;;;;;10.90;6.35;;;;;;;7.21;70.03;100642.38;4880384;29;20049;-55
2021/05/06 05:55:53;;;;;;;9.95;6.15;;;;;;;7.24;69.98;100645.41;4804530;29;20550;-55
2021/05/06 05:58:20;;;;;;;10.73;7.60;;;;;;;7.23;69.79;100642.94;4804257;29;20092;-54
2021/05/06 06:00:47;;;;;;;10.18;6.20;;;;;;;7.22;69.61;100641.31;4138074;29;10000481;-55
2021/05/06 06:03:16;;;;;;;12.52;7.55;;;;;;;7.21;70.05;100648.59;4801729;29;20050;-55
2021/05/06 06:05:43;;;;;;;12.50;8.27;;;;;;;7.20;70.03;100640.75;4801440;29;20062;-52
2021/05/06 06:08:11;;;;;;;11.02;7.47;;;;;;;7.20;70.42;100638.84;4800430;29;20059;-54
2021/05/06 06:10:38;;;;;;;12.70;7.18;;;;;;;7.22;70.49;100642.13;4800514;29;20077;-55
2021/05/06 06:13:05;;;;;;;12.68;7.85;;;;;;;7.25;70.35;100636.22;4801621;29;20050;-54
2021/05/06 06:15:50;;;;;;;10.55;7.60;;;;;;;7.22;70.43;100652.97;4800717;29;20054;-53
2021/05/06 06:18:34;;;;;;;15.85;8.65;;;;;;;7.22;70.86;100646.75;4888785;29;20199;-54
2021/05/06 06:23:35;;;;;;;13.45;8.35;;;;;;;7.30;70.49;100648.19;4933441;29;20054;-53
2021/05/06 06:26:02;;;;;;;12.40;7.55;;;;;;;7.30;69.97;100648.19;4934145;29;20043;-56
2021/05/06 06:28:41;;;;;;;13.10;8.48;;;;;;;7.31;70.27;100655.25;4933382;29;20111;-51
2021/05/06 06:33:45;;;;;;;14.35;7.57;;;;;;;7.36;69.87;100652.59;4933489;29;20177;-54
2021/05/06 06:36:13;;;;;;;12.15;7.60;;;;;;;7.36;70.34;100655.31;4925389;29;20487;-54
2021/05/06 06:38:40;;;;;;;12.60;6.97;;;;;;;7.36;69.78;100652.59;4932799;29;20086;-52
2021/05/06 06:41:12;;;;;;;10.90;6.22;;;;;;;7.39;69.58;100646.69;4933446;29;20044;-54
2021/05/06 06:43:42;;;;;;;9.57;6.72;;;;;;;7.56;70.14;100652.88;4932002;29;20055;-56
2021/05/06 06:46:10;;;;;;;11.80;6.40;;;;;;;7.58;69.02;100656.16;4933458;29;20050;-55
2021/05/06 06:48:37;;;;;;;10.38;5.80;;;;;;;7.54;68.50;100646.06;4932712;29;20043;-54
2021/05/06 06:51:05;;;;;;;9.10;5.88;;;;;;;7.51;68.77;100652.00;4933604;29;20483;-52
2021/05/06 06:53:32;;;;;;;9.75;5.57;;;;;;;7.49;68.25;100648.72;4933374;29;20043;-54
2021/05/06 06:55:59;;;;;;;11.13;6.53;;;;;;;7.48;68.42;100653.31;4932212;29;20557;-54
2021/05/06 06:58:30;;;;;;;9.00;5.60;;;;;;;7.47;68.65;100638.94;4932514;29;20063;-55
2021/05/06 07:00:58;;;;;;;10.57;5.82;;;;;;;7.53;69.06;100645.25;4931608;29;20040;-54
2021/05/06 07:03:25;;;;;;;8.63;5.20;;;;;;;7.59;68.83;100641.53;4929497;29;20048;-51
2021/05/06 07:05:53;;;;;;;7.28;4.28;;;;;;;7.78;70.07;100638.50;4933492;29;20040;-51
2021/05/06 07:08:23;;;;;;;9.63;5.63;;;;;;;7.82;68.39;100645.06;4939870;29;20114;-53
2021/05/06 07:10:53;;;;;;;10.38;5.70;;;;;;;7.80;67.94;100642.59;4932662;29;20083;-53
2021/05/06 07:13:20;;;;;;;11.43;6.15;;;;;;;7.80;68.28;100641.78;4932492;29;20506;-54
2021/05/06 07:15:53;;;;;;;12.55;6.22;;;;;;;7.77;68.23;100637.69;4932632;29;20115;-55
2021/05/06 07:18:20;;;;;;;7.68;4.40;;;;;;;7.89;69.05;100640.25;4932676;29;20043;-53
2021/05/06 07:20:48;;;;;;;11.43;6.65;;;;;;;7.89;68.39;100632.94;4932810;29;20040;-52
2021/05/06 07:23:18;;;;;;;10.13;5.47;;;;;;;7.92;67.97;100634.31;4932083;29;20078;-52
2021/05/06 07:25:50;;;;;;;10.88;6.65;;;;;;;7.97;68.22;100638.97;4932750;29;20071;-56
2021/05/06 07:28:22;;;;;;;12.30;6.13;;;;;;;8.00;68.03;100635.75;4939079;29;20043;-52
2021/05/06 07:30:52;;;;;;;12.43;8.77;;;;;;;7.96;67.66;100634.59;4935552;28;20043;-54
2021/05/06 07:33:21;;;;;;;13.40;7.82;;;;;;;7.93;67.14;100630.50;4934861;29;20514;-50
2021/05/06 07:35:51;;;;;;;14.15;10.48;;;;;;;7.96;67.53;100632.75;4934718;29;20040;-56
2021/05/06 07:38:21;;;;;;;15.68;10.38;;;;;;;7.98;68.01;100641.41;4934043;29;20099;-53
2021/05/06 07:40:51;;;;;;;12.75;9.90;;;;;;;8.02;67.65;100634.41;4934219;29;20048;-52
2021/05/06 07:43:22;;;;;;;16.10;9.52;;;;;;;8.02;67.08;100639.03;4934948;29;20031;-54
2021/05/06 07:45:51;;;;;;;14.18;10.98;;;;;;;8.02;68.06;100639.03;4934547;29;20403;-53
2021/05/06 07:48:20;;;;;;;16.25;12.02;;;;;;;7.97;67.39;100641.69;4934645;29;20044;-53
2021/05/06 07:50:50;;;;;;;13.73;9.25;;;;;;;7.96;67.25;100637.31;4934392;29;20044;-51
2021/05/06 07:53:25;;;;;;;14.32;11.13;;;;;;;7.95;67.31;100641.94;4934209;29;20482;-53
2021/05/06 07:55:57;;;;;;;;;;;;;;;8.00;67.06;100638.47;4934353;29;20068;-52
2021/05/06 07:58:24;;;;;;;15.95;11.23;;;;;;;8.09;67.66;100635.03;4934495;29;20428;-52
2021/05/06 08:00:51;;;;;;;20.40;7.43;;;;;;;8.25;66.45;100637.88;4934252;29;20123;-52
2021/05/06 08:03:18;;;;;;;15.32;9.40;;;;;;;8.32;66.85;100638.50;4934324;29;20494;-55
2021/05/06 08:05:46;;;;;;;13.82;10.05;;;;;;;8.30;65.58;100646.09;4934550;29;20048;-55
2021/05/06 08:08:13;;;;;;;15.75;8.27;;;;;;;8.30;65.30;100640.66;4933972;29;20040;-52
2021/05/06 08:10:42;;;;;;;13.52;8.95;;;;;;;8.29;64.68;100633.59;4933745;29;20463;-51
2021/05/06 08:13:10;;;;;;;12.57;8.52;;;;;;;8.29;64.11;100634.41;4934790;29;20048;-51
2021/05/06 08:15:37;;;;;;;13.63;8.80;;;;;;;8.37;64.80;100635.00;4934237;29;20036;-52
2021/05/06 08:18:05;;;;;;;21.90;12.32;;;;;;;8.45;65.79;100632.69;4934324;29;20802;-50
2021/05/06 08:20:32;;;;;;;17.50;8.25;;;;;;;8.73;65.86;100628.00;4934192;29;20036;-52
2021/05/06 08:22:59;;;;;;;15.15;6.53;;;;;;;8.88;65.60;100619.16;4933928;29;20059;-53
2021/05/06 08:25:26;;;;;;;13.98;8.10;;;;;;;8.96;64.11;100621.38;4933663;29;20102;-51
2021/05/06 08:27:53;;;;;;;13.20;9.07;;;;;;;8.86;63.14;100613.16;4934652;29;20095;-52
2021/05/06 08:30:21;;;;;;;15.05;6.78;;;;;;;8.76;63.45;100608.47;4934272;29;20055;-53
2021/05/06 08:32:48;;;;;;;13.48;8.20;;;;;;;8.63;61.90;100609.72;4934237;29;20051;-52
2021/05/06 08:35:15;;;;;;;13.02;8.40;;;;;;;8.57;61.50;100601.81;4948935;28;20055;-53
2021/05/06 08:37:42;;;;;;;11.23;7.13;;;;;;;8.49;60.32;100597.66;4934050;29;20118;-52
2021/05/06 08:40:10;;;;;;;10.75;7.18;;;;;;;8.43;60.55;100599.53;4933589;29;20075;-53
2021/05/06 08:42:39;;;;;;;10.32;8.07;;;;;;;8.42;61.15;100600.63;4937331;29;20079;-53
2021/05/06 08:45:08;;;;;;;11.25;7.85;;;;;;;8.42;62.03;100600.63;4940960;29;20091;-54
2021/05/06 08:47:36;;;;;;;12.00;9.40;;;;;;;8.45;62.55;100605.53;4938328;29;20047;-53
2021/05/06 08:50:05;;;;;;;13.35;7.78;;;;;;;8.49;62.04;100600.38;4938811;29;20040;-56
2021/05/06 08:52:33;;;;;;;11.95;8.15;;;;;;;8.52;61.38;100611.56;4936405;29;20544;-55
2021/05/06 08:55:00;;;;;;;12.90;6.13;;;;;;;8.57;61.38;100601.81;4933555;29;20498;-57
2021/05/06 08:57:27;;;;;;;10.75;7.03;;;;;;;8.60;61.43;100606.72;4934643;29;20408;-52
2021/05/06 08:59:55;;;;;;;10.20;8.13;;;;;;;8.63;60.68;100600.78;4934144;29;20067;-53
2021/05/06 09:02:22;;;;;;;10.70;8.00;;;;;;;8.63;60.00;100604.28;4934295;29;20039;-54
2021/05/06 09:04:49;;;;;;;10.73;8.20;;;;;;;8.67;60.56;100601.91;4934492;29;20106;-53
2021/05/06 09:07:16;;;;;;;10.73;7.35;;;;;;;8.71;60.13;100600.31;4937123;29;20044;-54
2021/05/06 09:09:48;;;;;;;11.30;7.88;;;;;;;8.79;61.01;100607.94;4937060;29;20050;-53
2021/05/06 09:12:19;;;;;;;10.57;6.40;;;;;;;8.87;60.77;100612.06;4937365;29;20070;-53
2021/05/06 09:14:50;;;;;;;11.00;5.78;;;;;;;8.92;60.32;100614.81;4937331;29;20051;-54
2021/05/06 09:17:32;;;;;;;9.52;6.03;;;;;;;8.92;59.40;100609.38;4936884;29;20403;-53
2021/05/06 09:20:10;;;;;;;9.35;6.43;;;;;;;8.85;58.82;100606.91;4937336;29;20055;-52
2021/05/06 09:22:43;;;;;;;13.82;7.32;;;;;;;8.77;59.11;100604.69;4936833;29;20047;-52
2021/05/06 09:25:23;;;;;;;12.52;6.20;;;;;;;8.77;59.55;100596.53;4937209;29;20099;-52
2021/05/06 09:28:19;;;;;;;14.82;6.80;;;;;;;8.93;60.82;100611.03;4937349;29;20052;-53
2021/05/06 09:31:02;;;;;;;11.43;5.40;;;;;;;8.95;59.53;100603.44;4938869;29;20067;-52
2021/05/06 09:33:31;;;;;;;11.13;5.40;;;;;;;8.99;59.12;100598.28;4933621;28;20533;-53
2021/05/06 09:36:17;;;;;;;9.85;6.05;;;;;;;8.98;58.26;100602.91;4959701;28;20485;-53
2021/05/06 09:38:48;;;;;;;13.02;4.63;;;;;;;9.10;61.95;100595.38;4955208;28;20055;-52
2021/05/06 09:41:38;;;;;;;8.88;6.05;;;;;;;9.19;58.31;100590.25;4955763;28;20051;-53
2021/05/06 09:44:19;;;;;;;13.15;5.65;;;;;;;9.14;58.48;100585.63;4955466;28;20091;-53
2021/05/06 09:46:56;;;;;;;12.95;5.50;;;;;;;9.19;59.13;100590.25;4954906;29;20529;-55
2021/05/06 09:49:24;;;;;;;8.25;4.97;;;;;;;9.22;56.69;100587.00;4954907;28;20126;-53
2021/05/06 09:51:58;;;;;;;14.00;5.30;;;;;;;9.60;60.94;100579.53;4953677;29;20043;-53
2021/05/06 09:54:27;;;;;;;11.63;5.25;;;;;;;9.72;59.11;100579.31;4955544;28;20078;-54
2021/05/06 09:57:05;;;;;;;10.18;5.47;;;;;;;9.79;58.54;100586.13;4955680;28;20071;-55
2021/05/06 09:59:38;;;;;;;9.27;4.78;;;;;;;9.80;57.73;100570.59;4955514;28;20043;-53
2021/05/06 10:02:13;;;;;;;10.27;4.90;;;;;;;9.90;56.08;100570.63;4955567;28;20050;-54
2021/05/06 10:04:44;;;;;;;9.80;5.38;;;;;;;9.83;53.35;100575.50;4955899;28;20082;-56
2021/05/06 10:07:23;;;;;;;9.30;5.75;;;;;;;9.77;54.23;100565.72;4954938;28;20434;-56
2021/05/06 10:10:06;;;;;;;7.82;5.03;;;;;;;9.73;53.11;100570.03;4955146;28;20073;-52
2021/05/06 10:12:35;;;;;;;7.65;5.03;;;;;;;9.73;51.86;100570.03;4955689;28;20498;-50
2021/05/06 10:15:04;;;;;;;8.23;4.88;;;;;;;9.73;53.26;100570.84;4955728;28;20463;-56
2021/05/06 10:17:32;;;;;;;8.30;4.97;;;;;;;9.76;52.71;100569.50;4941761;29;20050;-51
2021/05/06 10:20:01;;;;;;;10.40;5.72;;;;;;;9.77;53.52;100565.72;4954901;28;20099;-49
2021/05/06 10:22:29;;;;;;;23.52;11.80;;;;;;;9.82;53.96;100557.56;4955336;28;20055;-51
2021/05/06 10:25:01;;;;;;;8.80;5.57;;;;;;;9.94;53.59;100549.94;4953721;28;20066;-50
2021/05/06 10:27:29;;;;;;;12.43;5.85;;;;;;;10.00;51.56;100545.31;4955110;28;20514;-52
2021/05/06 10:29:57;;;;;;;21.20;10.13;;;;;;;10.01;55.78;100552.41;4955185;28;20047;-50
2021/05/06 10:32:26;;;;;;;17.58;8.60;;;;;;;10.04;56.83;100551.88;4954810;28;20114;-54
2021/05/06 10:35:05;;;;;;;31.42;13.43;;;;;;;10.04;57.19;100540.97;4954519;28;20083;-53
2021/05/06 10:37:35;;;;;;;18.33;9.25;;;;;;;10.09;56.88;100540.97;4953578;29;20042;-50
2021/05/06 10:40:24;;;;;;;38.28;14.02;;;;;;;10.36;65.71;100534.47;4953743;29;20057;-55
2021/05/06 10:42:53;;;;;;;17.52;7.60;;;;;;;10.34;53.75;100531.19;4610217;28;10000336;-55
2021/05/06 10:45:23;;;;;;;11.13;5.82;;;;;;;10.29;53.18;100525.75;4951494;29;20070;-55
2021/05/06 10:47:53;;;;;;;28.17;11.52;;;;;;;10.33;58.18;100526.84;4952671;28;20510;-55
2021/05/06 10:50:40;;;;;;;39.03;14.13;;;;;;;10.49;67.00;100523.03;4952063;28;20445;-55
2021/05/06 10:53:08;;;;;;;16.35;8.20;;;;;;;10.59;58.29;100523.00;4952562;28;20065;-57
2021/05/06 10:55:56;;;;;;;22.90;10.25;;;;;;;10.51;54.77;100520.00;4952428;28;20031;-56
2021/05/06 10:58:23;;;;;;;15.32;6.88;;;;;;;10.34;50.31;100517.59;4952749;28;20052;-56
2021/05/06 11:01:09;;;;;;;13.27;6.72;;;;;;;10.24;49.61;100512.94;4952717;28;20055;-55
2021/05/06 11:03:37;;;;;;;24.80;10.85;;;;;;;10.44;59.13;100509.41;4952163;28;20047;-52
2021/05/06 11:06:04;;;;;;;20.73;8.93;;;;;;;10.54;54.93;100511.31;4951995;28;20089;-54
2021/05/06 11:08:32;;;;;;;19.45;8.43;;;;;;;10.65;56.06;100500.13;4951518;28;20079;-53
2021/05/06 11:10:59;;;;;;;11.18;6.00;;;;;;;10.63;50.51;100494.13;4951163;29;20047;-57
2021/05/06 11:13:28;;;;;;;10.30;5.40;;;;;;;10.55;48.57;100500.13;4952448;28;20058;-52
2021/05/06 11:16:15;;;;;;;12.60;6.20;;;;;;;10.56;55.77;100496.31;4952574;28;20051;-55
2021/05/06 11:18:43;;;;;;;14.27;5.95;;;;;;;10.60;51.28;100486.47;4951435;28;20054;-54
2021/05/06 11:21:29;;;;;;;17.67;8.82;;;;;;;10.57;50.76;100484.31;4952465;28;20043;-50
2021/05/06 11:24:23;;;;;;;21.20;8.52;;;;;;;10.99;62.56;100488.56;4950970;29;20110;-53
2021/05/06 11:27:09;;;;;;;9.70;5.55;;;;;;;10.82;48.99;100482.59;4911615;29;20115;-55
2021/05/06 11:29:38;;;;;;;10.30;4.50;;;;;;;10.61;47.16;100482.69;4910756;29;20044;-51
2021/05/06 11:32:31;;;;;;;12.88;6.45;;;;;;;10.53;48.51;100475.06;4910733;29;20064;-53
2021/05/06 11:34:58;;;;;;;13.40;6.50;;;;;;;10.53;49.40;100475.06;4911179;29;20047;-52
2021/05/06 11:37:27;;;;;;;12.18;6.15;;;;;;;10.71;52.19;100476.38;4916352;29;20055;-51
2021/05/06 11:40:12;;;;;;;13.68;6.47;;;;;;;10.74;50.98;100461.38;4910894;29;20044;-52
2021/05/06 11:42:42;;;;;;;14.40;6.80;;;;;;;10.88;54.14;100454.25;4910797;29;20036;-50
2021/05/06 11:45:11;;;;;;;17.65;6.85;;;;;;;10.82;50.48;100463.53;4911519;29;20059;-53
2021/05/06 11:47:42;;;;;;;18.73;8.80;;;;;;;10.93;54.72;100456.13;4910490;29;20099;-51
2021/05/06 11:50:24;;;;;;;15.48;6.65;;;;;;;11.00;56.28;100462.91;4895334;29;20055;-53
2021/05/06 11:52:52;;;;;;;12.68;5.20;;;;;;;11.00;49.03;100457.47;4910929;29;20491;-53
2021/05/06 11:55:34;;;;;;;10.75;5.70;;;;;;;10.94;48.58;100455.84;4910847;29;20092;-52
2021/05/06 11:58:02;;;;;;;40.88;16.08;;;;;;;10.81;46.36;100446.38;4911008;29;20872;-53
2021/05/06 12:00:30;;;;;;;105.93;43.83;;;;;;;10.77;46.58;100445.28;4911091;29;20063;-52
2021/05/06 12:03:08;;;;;;;172.00;59.45;;;;;;;10.81;50.03;100442.81;4913365;29;20085;-55
2021/05/06 12:05:56;;;;;;;95.28;30.75;;;;;;;10.83;47.62;100435.19;4938532;29;20043;-49
2021/05/06 12:08:26;;;;;;;25.98;11.20;;;;;;;10.80;45.11;100438.47;4951152;28;20409;-52
2021/05/06 12:10:54;;;;;;;108.38;38.03;;;;;;;10.86;49.36;100432.72;4951590;28;20483;-54
2021/05/06 12:13:35;;;;;;;90.28;30.15;;;;;;;10.86;48.06;100430.00;4951555;28;20071;-55
2021/05/06 12:16:18;;;;;;;57.20;19.60;;;;;;;10.80;45.12;100422.09;4951386;28;20067;-52
2021/05/06 12:18:58;;;;;;;64.80;22.00;;;;;;;10.73;45.00;100416.16;4950535;28;20486;-52
2021/05/06 12:21:38;;;;;;;28.20;11.27;;;;;;;10.69;44.34;100418.63;4951649;28;20132;-53
2021/05/06 12:24:07;;;;;;;85.32;29.95;;;;;;;10.76;47.78;100418.31;4951454;28;20079;-52
2021/05/06 12:26:35;;;;;;;7.35;4.28;;;;;;;10.68;44.02;100422.44;4951823;28;20383;-56
2021/05/06 12:29:03;;;;;;;9.68;5.03;;;;;;;10.58;43.34;100417.84;4951343;28;20047;-55
2021/05/06 12:31:40;;;;;;;12.85;4.78;;;;;;;10.51;43.18;100414.63;4950511;28;20256;-52
2021/05/06 12:34:19;;;;;;;6.60;3.60;;;;;;;10.44;43.28;100416.81;4950010;29;20059;-54
2021/05/06 12:37:00;;;;;;;8.82;4.50;;;;;;;10.39;43.86;100414.91;4951185;28;20067;-53
2021/05/06 12:39:29;;;;;;;6.60;4.00;;;;;;;10.29;45.53;100419.56;4949558;28;20631;-50
2021/05/06 12:42:04;;;;;;;10.00;5.22;;;;;;;10.22;46.12;100419.81;4952203;28;20051;-52
2021/05/06 12:44:32;;;;;;;7.55;4.20;;;;;;;10.20;45.56;100422.03;4953138;28;20400;-52
2021/05/06 12:47:21;;;;;;;14.18;7.00;;;;;;;10.19;46.45;100431.25;4954019;28;20045;-54
2021/05/06 12:50:10;;;;;;;8.38;4.38;;;;;;;10.18;47.49;100437.81;4954950;28;20102;-53
2021/05/06 12:52:39;;;;;;;10.38;4.65;;;;;;;10.10;50.73;100444.63;4954796;29;20483;-52
2021/05/06 12:55:30;;;;;;;10.80;4.53;;;;;;;9.94;55.68;100457.41;4954400;28;20051;-53
2021/05/06 12:58:19;;;;;;;8.98;4.47;;;;;;;9.73;57.85;100462.03;4955030;28;20055;-54
2021/05/06 13:00:56;;;;;;;6.68;4.40;;;;;;;9.63;58.23;100462.03;4954414;28;20054;-54
2021/05/06 13:03:33;;;;;;;32.03;11.50;;;;;;;9.55;57.42;100460.66;4954276;28;20050;-53
2021/05/06 13:06:08;;;;;;;5.65;4.15;;;;;;;9.54;57.89;100460.94;4954201;28;20051;-53
2021/05/06 13:08:43;;;;;;;7.60;4.03;;;;;;;9.48;55.89;100456.59;4954307;28;20129;-56
2021/05/06 13:11:12;;;;;;;7.32;3.80;;;;;;;9.43;55.53;100434.78;4954535;28;20043;-57
2021/05/06 13:13:52;;;;;;;7.65;4.03;;;;;;;9.39;57.57;100429.91;4954335;28;20118;-55
2021/05/06 13:16:53;;;;;;;13.38;5.55;;;;;;;9.36;57.26;100413.34;4953980;29;20043;-55
2021/05/06 13:19:21;;;;;;;11.82;5.90;;;;;;;9.31;57.44;100407.88;4941835;29;20053;-52
2021/05/06 13:21:51;;;;;;;11.57;5.75;;;;;;;9.29;55.29;100408.16;4954327;28;20075;-51
2021/05/06 13:24:21;;;;;;;17.30;6.90;;;;;;;9.33;54.44;100406.53;4954428;28;20059;-55
2021/05/06 13:26:48;;;;;;;16.83;5.90;;;;;;;9.48;53.88;100396.75;4954442;28;20111;-53
2021/05/06 13:29:19;;;;;;;15.68;6.60;;;;;;;9.59;54.56;100392.94;4953421;28;20066;-53
2021/05/06 13:31:48;;;;;;;19.08;7.47;;;;;;;9.69;55.10;100390.25;4953900;28;20857;-49
2021/05/06 13:34:20;;;;;;;10.73;4.90;;;;;;;9.81;56.88;100398.94;4954127;28;20047;-51
2021/05/06 13:37:02;;;;;;;19.48;7.45;;;;;;;9.95;55.36;100387.47;4954122;28;20106;-53
2021/05/06 13:39:33;;;;;;;17.17;6.60;;;;;;;9.92;53.96;100380.69;4953514;28;20075;-49
2021/05/06 13:42:01;;;;;;;9.95;4.93;;;;;;;10.02;53.66;100382.56;4953380;28;20066;-53
2021/05/06 13:44:30;;;;;;;7.53;3.78;;;;;;;10.08;54.15;100386.91;4952457;29;20039;-51
2021/05/06 13:46:58;;;;;;;12.30;5.60;;;;;;;10.14;51.47;100377.63;4953763;28;20074;-50
2021/05/06 13:49:28;;;;;;;12.85;6.15;;;;;;;10.23;51.27;100373.25;4953747;28;20051;-50
2021/05/06 13:51:56;;;;;;;9.57;3.97;;;;;;;10.31;51.66;100374.63;4953549;28;20537;-52
2021/05/06 13:54:25;;;;;;;9.98;4.70;;;;;;;10.38;49.97;100368.88;4953297;28;20046;-53
2021/05/06 13:56:52;;;;;;;8.25;4.32;;;;;;;10.44;49.40;100362.34;4954067;28;20490;-52
2021/05/06 13:59:20;;;;;;;7.22;4.00;;;;;;;10.52;48.30;100360.94;4952839;28;20051;-53
2021/05/06 14:01:52;;;;;;;6.13;3.95;;;;;;;10.54;52.05;100350.59;4953632;28;20494;-53
2021/05/06 14:04:20;;;;;;;7.80;4.30;;;;;;;10.48;52.80;100349.78;4953336;28;20102;-52
2021/05/06 14:06:47;;;;;;;11.90;6.07;;;;;;;10.44;55.72;100357.69;4948423;28;20047;-54
2021/05/06 14:09:19;;;;;;;7.88;5.50;;;;;;;10.34;56.39;100365.09;4953035;28;20119;-51
2021/05/06 14:11:48;;;;;;;13.70;6.18;;;;;;;10.24;54.68;100363.19;4953256;28;20455;-50
2021/05/06 14:14:18;;;;;;;10.88;6.03;;;;;;;10.15;54.94;100360.22;4952936;28;20047;-52
2021/05/06 14:16:46;;;;;;;11.82;6.30;;;;;;;10.07;53.74;100355.31;4953298;28;20046;-51
2021/05/06 14:19:13;;;;;;;11.23;5.40;;;;;;;10.05;52.39;100354.78;4942108;29;20058;-52
2021/05/06 14:21:42;;;;;;;9.52;5.82;;;;;;;10.02;52.50;100350.72;4952855;28;20047;-52
2021/05/06 14:24:11;;;;;;;10.45;5.70;;;;;;;10.08;53.76;100347.97;4953176;28;20568;-53
2021/05/06 14:26:39;;;;;;;9.80;5.45;;;;;;;10.10;53.98;100346.63;4953086;28;20070;-51
2021/05/06 14:29:08;;;;;;;10.68;5.95;;;;;;;10.18;55.04;100343.31;4952592;29;20410;-52
2021/05/06 14:31:35;;;;;;;9.00;5.28;;;;;;;10.14;53.08;100341.44;4952750;28;20055;-52
2021/05/06 14:34:03;;;;;;;10.45;5.55;;;;;;;10.08;52.93;100337.91;4952852;28;20098;-53
2021/05/06 14:36:30;;;;;;;7.60;4.82;;;;;;;10.01;51.43;100334.69;4952999;28;20110;-54
2021/05/06 14:39:00;;;;;;;10.32;6.10;;;;;;;9.90;52.44;100338.50;4952913;28;20039;-53
2021/05/06 14:41:29;;;;;;;11.02;6.13;;;;;;;9.96;52.72;100334.69;4952792;28;20051;-52
2021/05/06 14:43:57;;;;;;;13.10;6.63;;;;;;;10.07;53.67;100330.84;4953139;28;20047;-52
2021/05/06 14:46:25;;;;;;;10.02;6.30;;;;;;;10.14;53.29;100342.25;4942416;29;20052;-52
2021/05/06 14:48:52;;;;;;;10.80;6.65;;;;;;;10.02;52.27;100333.56;4952209;28;20047;-54
2021/05/06 14:51:20;;;;;;;9.20;5.53;;;;;;;10.00;53.22;100338.47;4952917;28;20043;-51
2021/05/06 14:53:47;;;;;;;8.50;6.05;;;;;;;9.94;53.32;100326.78;4952838;28;20148;-54
2021/05/06 14:56:15;;;;;;;12.20;6.32;;;;;;;9.97;53.04;100336.31;4951753;28;20043;-54
2021/05/06 14:58:42;;;;;;;9.95;5.55;;;;;;;9.98;53.63;100327.88;4951397;29;20142;-54
2021/05/06 15:01:10;;;;;;;11.75;6.45;;;;;;;9.99;53.19;100325.97;4952737;28;20035;-55
2021/05/06 15:03:37;;;;;;;10.50;6.47;;;;;;;10.05;53.47;100327.56;4951534;28;20043;-52
2021/05/06 15:06:05;;;;;;;9.93;6.43;;;;;;;9.99;53.39;100334.13;4952374;28;20051;-54
2021/05/06 15:08:32;;;;;;;12.13;6.38;;;;;;;10.07;53.99;100330.84;4952071;28;20051;-53
2021/05/06 15:10:59;;;;;;;9.55;5.70;;;;;;;10.10;54.29;100324.84;4952146;28;20035;-54
2021/05/06 15:13:27;;;;;;;15.35;7.47;;;;;;;10.03;54.68;100325.13;4967130;28;20054;-53